createdAt,value
2023-02-17T00:00:32.572Z,2.33
2023-02-17T00:05:57.315Z,2.36
2023-02-17T00:11:19.940Z,2.39
2023-02-17T00:16:42.097Z,2.45
2023-02-17T00:22:03.880Z,2.50
2023-02-17T00:27:27.433Z,2.54
2023-02-17T00:32:49.577Z,2.54
2023-02-17T00:38:11.380Z,2.55
2023-02-17T00:43:33.953Z,2.60
2023-02-17T00:48:55.813Z,2.61
2023-02-17T00:54:18.798Z,2.66
2023-02-17T00:59:40.829Z,2.65
2023-02-17T01:05:03.205Z,2.74
2023-02-17T01:10:25.303Z,2.82
2023-02-17T01:15:50.961Z,2.83
2023-02-17T01:21:20.700Z,2.72
2023-02-17T01:26:42.210Z,2.69
2023-02-17T01:32:04.628Z,2.66
2023-02-17T01:37:26.571Z,2.64
2023-02-17T01:42:49.401Z,2.62
2023-02-17T01:48:16.650Z,2.57
2023-02-17T01:53:50.118Z,2.52
2023-02-17T01:59:18.136Z,2.46
2023-02-17T02:04:41.602Z,2.46
2023-02-17T02:10:03.834Z,2.46
2023-02-17T02:15:32.635Z,2.44
2023-02-17T02:21:07.978Z,2.46
2023-02-17T02:26:54.379Z,2.50
2023-02-17T02:32:38.496Z,2.53
2023-02-17T02:38:12.372Z,2.58
2023-02-17T02:43:35.968Z,2.68
2023-02-17T02:48:57.529Z,2.69
2023-02-17T02:54:58.086Z,2.75
2023-02-17T03:00:36.072Z,2.83
2023-02-17T03:06:24.195Z,2.83
2023-02-17T03:11:46.947Z,2.81
2023-02-17T03:17:08.957Z,2.81
2023-02-17T03:22:37.306Z,2.72
2023-02-17T03:27:59.350Z,2.68
2023-02-17T03:33:22.068Z,2.68
2023-02-17T03:38:44.099Z,2.76
2023-02-17T03:44:05.628Z,2.85
2023-02-17T03:49:27.755Z,2.95
2023-02-17T03:54:49.485Z,2.96
2023-02-17T04:00:14.129Z,2.99
2023-02-17T04:05:36.011Z,2.99
2023-02-17T04:11:01.306Z,3.02
2023-02-17T04:16:23.009Z,3.11
2023-02-17T04:21:44.853Z,3.17
2023-02-17T04:27:06.826Z,3.19
2023-02-17T04:32:28.830Z,3.20
2023-02-17T04:37:51.436Z,3.26
2023-02-17T04:43:13.774Z,3.26
2023-02-17T04:48:35.910Z,3.38
2023-02-17T04:53:57.829Z,3.53
2023-02-17T04:59:23.184Z,3.65
2023-02-17T05:04:46.737Z,3.71
2023-02-17T05:10:09.566Z,3.74
2023-02-17T05:15:33.143Z,3.82
2023-02-17T05:20:56.277Z,3.92
2023-02-17T05:26:18.136Z,3.95
2023-02-17T05:31:39.885Z,3.95
2023-02-17T05:37:02.301Z,3.94
2023-02-17T05:42:28.983Z,3.95
2023-02-17T05:47:50.670Z,3.97
2023-02-17T05:53:12.913Z,4.01
2023-02-17T05:58:36.535Z,4.11
2023-02-17T06:03:58.868Z,4.14
2023-02-17T06:09:21.001Z,4.12
2023-02-17T06:14:43.530Z,4.20
2023-02-17T06:20:06.174Z,4.24
2023-02-17T06:25:27.998Z,4.21
2023-02-17T06:30:50.120Z,4.18
2023-02-17T06:36:12.658Z,4.26
2023-02-17T06:41:34.480Z,4.35
2023-02-17T06:46:56.505Z,4.36
2023-02-17T06:52:19.241Z,4.48
2023-02-17T06:57:41.166Z,4.59
2023-02-17T07:03:03.003Z,4.62
2023-02-17T07:08:25.131Z,4.65
2023-02-17T07:13:46.860Z,4.70
2023-02-17T07:19:09.003Z,4.79
2023-02-17T07:24:31.419Z,4.86
2023-02-17T07:29:53.249Z,4.91
2023-02-17T07:35:14.742Z,5.01
2023-02-17T07:40:36.719Z,5.09
2023-02-17T07:45:59.507Z,5.18
2023-02-17T07:51:22.881Z,5.28
2023-02-17T07:56:44.697Z,5.32
2023-02-17T08:02:07.395Z,5.35
2023-02-17T08:07:30.060Z,5.41
2023-02-17T08:13:12.469Z,5.48
2023-02-17T08:18:36.481Z,5.58
2023-02-17T08:23:58.837Z,5.63
2023-02-17T08:29:21.162Z,5.64
2023-02-17T08:34:43.541Z,5.69
2023-02-17T08:40:06.720Z,5.73
2023-02-17T08:45:28.750Z,5.75
2023-02-17T08:50:50.784Z,5.79
2023-02-17T08:56:12.966Z,5.84
2023-02-17T09:01:35.648Z,5.93
2023-02-17T09:06:58.527Z,6.00
2023-02-17T09:12:20.214Z,6.09
2023-02-17T09:17:41.942Z,6.11
2023-02-17T09:23:04.174Z,6.11
2023-02-17T09:28:25.775Z,6.18
2023-02-17T09:33:48.732Z,6.17
2023-02-17T09:39:13.831Z,6.18
2023-02-17T09:44:45.340Z,6.20
2023-02-17T09:50:11.874Z,6.28
2023-02-17T09:55:37.967Z,6.35
2023-02-17T10:01:05.784Z,6.35
2023-02-17T10:06:31.637Z,6.32
2023-02-17T10:12:04.395Z,6.32
2023-02-17T10:17:35.534Z,6.27
2023-02-17T10:23:07.707Z,6.19
2023-02-17T10:28:37.168Z,6.19
2023-02-17T10:34:05.897Z,6.24
2023-02-17T10:39:46.210Z,6.34
2023-02-17T10:45:11.451Z,6.45
2023-02-17T10:50:34.956Z,6.52
2023-02-17T10:56:05.446Z,6.53
2023-02-17T11:01:28.580Z,6.58
2023-02-17T11:06:53.424Z,6.66
2023-02-17T11:12:29.398Z,6.63
2023-02-17T11:17:52.032Z,6.65
2023-02-17T11:23:16.779Z,6.73
2023-02-17T11:28:38.592Z,6.85
2023-02-17T11:34:11.470Z,6.97
2023-02-17T11:39:41.530Z,6.99
2023-02-17T11:45:17.520Z,6.92
2023-02-17T11:50:58.511Z,6.85
2023-02-17T11:56:41.412Z,6.79
2023-02-17T12:02:16.424Z,6.78
2023-02-17T12:07:58.479Z,6.82
2023-02-17T12:13:36.473Z,6.84
2023-02-17T12:19:19.884Z,6.89
2023-02-17T12:24:45.382Z,6.92
2023-02-17T12:30:34.433Z,6.88
2023-02-17T12:36:01.890Z,6.85
2023-02-17T12:41:40.784Z,6.90
2023-02-17T12:47:10.455Z,6.94
2023-02-17T12:52:39.782Z,6.95
2023-02-17T12:58:08.135Z,6.91
2023-02-17T13:03:33.778Z,6.92
2023-02-17T13:08:58.636Z,6.98
2023-02-17T13:14:47.673Z,7.00
2023-02-17T13:20:09.573Z,6.99
2023-02-17T13:25:35.066Z,7.06
2023-02-17T13:31:09.664Z,7.12
2023-02-17T13:36:31.536Z,7.16
2023-02-17T13:41:58.169Z,7.17
2023-02-17T13:47:30.527Z,7.20
2023-02-17T13:52:52.663Z,7.23
2023-02-17T13:58:14.690Z,7.28
2023-02-17T14:03:47.359Z,7.27
2023-02-17T14:09:34.675Z,7.35
2023-02-17T14:14:56.401Z,7.35
2023-02-17T14:20:33.696Z,7.35
2023-02-17T14:25:57.118Z,7.34
2023-02-17T14:31:20.639Z,7.33
2023-02-17T14:36:42.713Z,7.32
2023-02-17T14:42:05.414Z,7.26
2023-02-17T14:47:27.545Z,7.23
2023-02-17T14:52:50.085Z,7.22
2023-02-17T14:58:24.152Z,7.21
2023-02-17T15:03:46.484Z,7.19
2023-02-17T15:09:12.439Z,7.13
2023-02-17T15:14:36.669Z,7.08
2023-02-17T15:19:59.041Z,7.03
2023-02-17T15:25:25.746Z,7.00
2023-02-17T15:30:52.950Z,7.01
2023-02-17T15:36:17.330Z,6.99
2023-02-17T15:41:40.443Z,6.95
2023-02-17T15:47:02.503Z,6.97
2023-02-17T15:52:24.355Z,7.00
2023-02-17T15:57:49.772Z,7.03
2023-02-17T16:03:13.734Z,7.04
2023-02-17T16:08:35.928Z,7.07
2023-02-17T16:13:57.774Z,7.12
2023-02-17T16:19:19.784Z,7.14
2023-02-17T16:24:42.219Z,7.17
2023-02-17T16:30:23.103Z,7.25
2023-02-17T16:35:45.373Z,7.31
2023-02-17T16:41:08.175Z,7.35
2023-02-17T16:46:34.635Z,7.40
2023-02-17T16:51:56.365Z,7.47
2023-02-17T16:57:19.809Z,7.51
2023-02-17T17:02:41.776Z,7.54
2023-02-17T17:08:04.146Z,7.57
2023-02-17T17:13:25.873Z,7.59
2023-02-17T17:18:48.097Z,7.64
2023-02-17T17:24:11.942Z,7.65
2023-02-17T17:29:33.770Z,7.68
2023-02-17T17:34:56.200Z,7.75
2023-02-17T17:40:22.041Z,7.78
2023-02-17T17:45:43.981Z,7.77
2023-02-17T17:51:07.023Z,7.79
2023-02-17T17:56:38.972Z,7.81
2023-02-17T18:02:00.499Z,7.80
2023-02-17T18:07:22.528Z,7.77
2023-02-17T18:12:45.966Z,7.73
2023-02-17T18:18:07.696Z,7.71
2023-02-17T18:23:29.832Z,7.69
2023-02-17T18:28:54.862Z,7.72
2023-02-17T18:34:16.988Z,7.74
2023-02-17T18:39:39.415Z,7.81
2023-02-17T18:45:01.646Z,7.85
2023-02-17T18:50:23.482Z,7.90
2023-02-17T18:55:46.509Z,7.95
2023-02-17T19:01:15.647Z,8.01
2023-02-17T19:06:37.594Z,8.06
2023-02-17T19:11:59.218Z,8.14
2023-02-17T19:17:21.053Z,8.20
2023-02-17T19:22:43.075Z,8.26
2023-02-17T19:28:05.006Z,8.27
2023-02-17T19:33:27.639Z,8.28
2023-02-17T19:38:50.394Z,8.23
2023-02-17T19:44:12.317Z,8.18
2023-02-17T19:49:34.236Z,8.18
2023-02-17T19:55:02.954Z,8.17
2023-02-17T20:00:25.263Z,8.22
2023-02-17T20:06:13.362Z,8.28
2023-02-17T20:11:35.871Z,8.31
2023-02-17T20:16:59.760Z,8.36
2023-02-17T20:22:21.936Z,8.40
2023-02-17T20:27:44.565Z,8.48
2023-02-17T20:33:06.657Z,8.57
2023-02-17T20:38:28.526Z,8.64
2023-02-17T20:43:51.213Z,8.71
2023-02-17T20:49:14.006Z,8.79
2023-02-17T20:54:36.109Z,8.86
2023-02-17T21:00:01.470Z,8.92
2023-02-17T21:05:24.602Z,8.96
2023-02-17T21:10:46.484Z,9.01
2023-02-17T21:16:18.157Z,9.06
2023-02-17T21:21:41.185Z,9.11
2023-02-17T21:27:03.161Z,9.16
2023-02-17T21:32:28.026Z,9.19
2023-02-17T21:37:50.220Z,9.22
2023-02-17T21:43:32.221Z,9.27
2023-02-17T21:48:55.663Z,9.32
2023-02-17T21:54:17.282Z,9.34
2023-02-17T21:59:40.114Z,9.39
2023-02-17T22:05:01.747Z,9.45
2023-02-17T22:10:23.776Z,9.50
2023-02-17T22:15:47.292Z,9.59
2023-02-17T22:21:11.443Z,9.66
2023-02-17T22:26:36.285Z,9.68
2023-02-17T22:32:01.373Z,9.63
2023-02-17T22:37:26.067Z,9.56
2023-02-17T22:42:48.092Z,9.52
2023-02-17T22:48:10.122Z,9.49
2023-02-17T22:53:31.950Z,9.42
2023-02-17T22:58:56.570Z,9.37
2023-02-17T23:04:18.370Z,9.30
2023-02-17T23:09:40.455Z,9.25
2023-02-17T23:15:02.479Z,9.21
2023-02-17T23:20:25.030Z,9.19
2023-02-17T23:25:52.145Z,9.16
2023-02-17T23:31:14.313Z,9.14
2023-02-17T23:36:39.380Z,9.16
2023-02-17T23:42:01.079Z,9.17
2023-02-17T23:47:23.503Z,9.18
2023-02-17T23:52:45.160Z,9.21
2023-02-17T23:58:07.274Z,9.22
